sensor_id;sensor_type;location;lat;lon;timestamp;temperature;humidity
70676;DHT22;59069;52.242;20.900;2023-12-20T00:01:00;6.36;92.37
70676;DHT22;59069;52.242;20.900;2023-12-20T00:03:25;6.37;92.39
70676;DHT22;59069;52.242;20.900;2023-12-20T00:05:51;6.38;92.47
70676;DHT22;59069;52.242;20.900;2023-12-20T00:08:16;6.38;92.48
70676;DHT22;59069;52.242;20.900;2023-12-20T00:10:45;6.40;92.48
70676;DHT22;59069;52.242;20.900;2023-12-20T00:13:11;6.38;92.36
70676;DHT22;59069;52.242;20.900;2023-12-20T00:15:36;6.40;92.39
70676;DHT22;59069;52.242;20.900;2023-12-20T00:18:02;6.41;92.40
70676;DHT22;59069;52.242;20.900;2023-12-20T00:20:28;6.43;92.36
70676;DHT22;59069;52.242;20.900;2023-12-20T00:22:56;6.43;92.33
70676;DHT22;59069;52.242;20.900;2023-12-20T00:25:23;6.44;92.36
70676;DHT22;59069;52.242;20.900;2023-12-20T00:27:48;6.44;92.32
70676;DHT22;59069;52.242;20.900;2023-12-20T00:30:14;6.43;92.35
70676;DHT22;59069;52.242;20.900;2023-12-20T00:32:39;6.41;92.33
70676;DHT22;59069;52.242;20.900;2023-12-20T00:35:15;6.43;92.36
70676;DHT22;59069;52.242;20.900;2023-12-20T00:37:42;6.44;92.38
70676;DHT22;59069;52.242;20.900;2023-12-20T00:40:08;6.43;92.39
70676;DHT22;59069;52.242;20.900;2023-12-20T00:42:34;6.45;92.39
70676;DHT22;59069;52.242;20.900;2023-12-20T00:45:01;6.44;92.35
70676;DHT22;59069;52.242;20.900;2023-12-20T00:47:27;6.45;92.36
70676;DHT22;59069;52.242;20.900;2023-12-20T00:49:53;6.47;92.39
70676;DHT22;59069;52.242;20.900;2023-12-20T00:52:18;6.47;92.39
70676;DHT22;59069;52.242;20.900;2023-12-20T00:54:45;6.50;92.38
70676;DHT22;59069;52.242;20.900;2023-12-20T00:57:10;6.50;92.38
70676;DHT22;59069;52.242;20.900;2023-12-20T00:59:36;6.48;92.37
70676;DHT22;59069;52.242;20.900;2023-12-20T01:02:02;6.52;92.33
70676;DHT22;59069;52.242;20.900;2023-12-20T01:04:27;6.50;92.34
70676;DHT22;59069;52.242;20.900;2023-12-20T01:06:53;6.51;92.31
70676;DHT22;59069;52.242;20.900;2023-12-20T01:09:19;6.51;92.32
70676;DHT22;59069;52.242;20.900;2023-12-20T01:11:44;6.50;92.28
70676;DHT22;59069;52.242;20.900;2023-12-20T01:14:12;6.51;92.26
70676;DHT22;59069;52.242;20.900;2023-12-20T01:16:38;6.51;92.27
70676;DHT22;59069;52.242;20.900;2023-12-20T01:19:03;6.51;92.27
70676;DHT22;59069;52.242;20.900;2023-12-20T01:21:29;6.50;92.27
70676;DHT22;59069;52.242;20.900;2023-12-20T01:23:54;6.54;92.32
70676;DHT22;59069;52.242;20.900;2023-12-20T01:26:20;6.52;92.32
70676;DHT22;59069;52.242;20.900;2023-12-20T01:28:45;6.51;92.34
70676;DHT22;59069;52.242;20.900;2023-12-20T01:31:11;6.52;92.27
70676;DHT22;59069;52.242;20.900;2023-12-20T01:33:37;6.55;92.29
70676;DHT22;59069;52.242;20.900;2023-12-20T01:36:03;6.57;92.27
70676;DHT22;59069;52.242;20.900;2023-12-20T01:38:29;6.54;92.25
70676;DHT22;59069;52.242;20.900;2023-12-20T01:40:54;6.54;92.32
70676;DHT22;59069;52.242;20.900;2023-12-20T01:43:20;6.55;92.32
70676;DHT22;59069;52.242;20.900;2023-12-20T01:45:47;6.55;92.33
70676;DHT22;59069;52.242;20.900;2023-12-20T01:48:13;6.54;92.39
70676;DHT22;59069;52.242;20.900;2023-12-20T01:50:39;6.54;92.30
70676;DHT22;59069;52.242;20.900;2023-12-20T01:53:07;6.57;92.23
70676;DHT22;59069;52.242;20.900;2023-12-20T01:55:36;6.55;92.23
70676;DHT22;59069;52.242;20.900;2023-12-20T01:58:04;6.55;92.21
70676;DHT22;59069;52.242;20.900;2023-12-20T02:00:30;6.55;92.18
70676;DHT22;59069;52.242;20.900;2023-12-20T02:02:56;6.54;92.16
70676;DHT22;59069;52.242;20.900;2023-12-20T02:05:25;6.52;92.11
70676;DHT22;59069;52.242;20.900;2023-12-20T02:07:51;6.51;92.12
70676;DHT22;59069;52.242;20.900;2023-12-20T02:10:16;6.51;92.07
70676;DHT22;59069;52.242;20.900;2023-12-20T02:12:42;6.51;92.03
70676;DHT22;59069;52.242;20.900;2023-12-20T02:15:08;6.50;92.02
70676;DHT22;59069;52.242;20.900;2023-12-20T02:17:34;6.52;91.99
70676;DHT22;59069;52.242;20.900;2023-12-20T02:19:59;6.51;91.95
70676;DHT22;59069;52.242;20.900;2023-12-20T02:22:25;6.48;91.89
70676;DHT22;59069;52.242;20.900;2023-12-20T02:24:53;6.48;91.83
70676;DHT22;59069;52.242;20.900;2023-12-20T02:27:19;6.50;91.79
70676;DHT22;59069;52.242;20.900;2023-12-20T02:29:47;6.50;91.69
70676;DHT22;59069;52.242;20.900;2023-12-20T02:32:13;6.50;91.68
70676;DHT22;59069;52.242;20.900;2023-12-20T02:34:38;6.48;91.58
70676;DHT22;59069;52.242;20.900;2023-12-20T02:37:04;6.51;91.52
70676;DHT22;59069;52.242;20.900;2023-12-20T02:39:30;6.50;91.45
70676;DHT22;59069;52.242;20.900;2023-12-20T02:41:55;6.51;91.39
70676;DHT22;59069;52.242;20.900;2023-12-20T02:44:21;6.48;91.34
70676;DHT22;59069;52.242;20.900;2023-12-20T02:46:50;6.51;91.24
70676;DHT22;59069;52.242;20.900;2023-12-20T02:49:15;6.51;91.14
70676;DHT22;59069;52.242;20.900;2023-12-20T02:51:41;6.51;91.09
70676;DHT22;59069;52.242;20.900;2023-12-20T02:54:07;6.48;91.01
70676;DHT22;59069;52.242;20.900;2023-12-20T02:56:33;6.51;91.00
70676;DHT22;59069;52.242;20.900;2023-12-20T02:58:58;6.52;90.96
70676;DHT22;59069;52.242;20.900;2023-12-20T03:01:24;6.50;90.93
70676;DHT22;59069;52.242;20.900;2023-12-20T03:03:50;6.51;90.91
70676;DHT22;59069;52.242;20.900;2023-12-20T03:06:17;6.51;90.88
70676;DHT22;59069;52.242;20.900;2023-12-20T03:08:44;6.51;90.90
70676;DHT22;59069;52.242;20.900;2023-12-20T03:11:09;6.51;90.87
70676;DHT22;59069;52.242;20.900;2023-12-20T03:13:35;6.54;90.87
70676;DHT22;59069;52.242;20.900;2023-12-20T03:16:00;6.54;90.85
70676;DHT22;59069;52.242;20.900;2023-12-20T03:18:26;6.51;90.80
70676;DHT22;59069;52.242;20.900;2023-12-20T03:20:53;6.52;90.81
70676;DHT22;59069;52.242;20.900;2023-12-20T03:23:19;6.52;90.79
70676;DHT22;59069;52.242;20.900;2023-12-20T03:25:44;6.55;90.71
70676;DHT22;59069;52.242;20.900;2023-12-20T03:28:10;6.58;90.73
70676;DHT22;59069;52.242;20.900;2023-12-20T03:30:35;6.58;90.71
70676;DHT22;59069;52.242;20.900;2023-12-20T03:33:01;6.58;90.62
70676;DHT22;59069;52.242;20.900;2023-12-20T03:35:26;6.58;90.65
70676;DHT22;59069;52.242;20.900;2023-12-20T03:37:52;6.60;90.58
70676;DHT22;59069;52.242;20.900;2023-12-20T03:40:18;6.61;90.56
70676;DHT22;59069;52.242;20.900;2023-12-20T03:42:43;6.58;90.59
70676;DHT22;59069;52.242;20.900;2023-12-20T03:45:09;6.57;90.53
70676;DHT22;59069;52.242;20.900;2023-12-20T03:47:34;6.57;90.45
70676;DHT22;59069;52.242;20.900;2023-12-20T03:50:00;6.57;90.47
70676;DHT22;59069;52.242;20.900;2023-12-20T03:52:25;6.57;90.46
70676;DHT22;59069;52.242;20.900;2023-12-20T03:54:51;6.52;90.48
70676;DHT22;59069;52.242;20.900;2023-12-20T03:57:16;6.51;90.50
70676;DHT22;59069;52.242;20.900;2023-12-20T03:59:42;6.51;90.58
70676;DHT22;59069;52.242;20.900;2023-12-20T04:02:07;6.52;90.60
70676;DHT22;59069;52.242;20.900;2023-12-20T04:04:33;6.55;90.56
70676;DHT22;59069;52.242;20.900;2023-12-20T04:06:59;6.52;90.62
70676;DHT22;59069;52.242;20.900;2023-12-20T04:09:24;6.52;90.57
70676;DHT22;59069;52.242;20.900;2023-12-20T04:11:50;6.52;90.60
70676;DHT22;59069;52.242;20.900;2023-12-20T04:14:16;6.52;90.62
70676;DHT22;59069;52.242;20.900;2023-12-20T04:16:42;6.50;90.69
70676;DHT22;59069;52.242;20.900;2023-12-20T04:19:07;6.51;90.79
70676;DHT22;59069;52.242;20.900;2023-12-20T04:21:33;6.50;90.84
70676;DHT22;59069;52.242;20.900;2023-12-20T04:23:59;6.50;90.89
70676;DHT22;59069;52.242;20.900;2023-12-20T04:26:24;6.48;91.02
70676;DHT22;59069;52.242;20.900;2023-12-20T04:28:50;6.50;91.10
70676;DHT22;59069;52.242;20.900;2023-12-20T04:31:15;6.48;91.19
70676;DHT22;59069;52.242;20.900;2023-12-20T04:33:41;6.48;91.26
70676;DHT22;59069;52.242;20.900;2023-12-20T04:36:06;6.47;91.28
70676;DHT22;59069;52.242;20.900;2023-12-20T04:38:34;6.48;91.37
70676;DHT22;59069;52.242;20.900;2023-12-20T04:40:59;6.47;91.37
70676;DHT22;59069;52.242;20.900;2023-12-20T04:43:25;6.47;91.44
70676;DHT22;59069;52.242;20.900;2023-12-20T04:45:50;6.48;91.52
70676;DHT22;59069;52.242;20.900;2023-12-20T04:48:16;6.45;91.52
70676;DHT22;59069;52.242;20.900;2023-12-20T04:50:42;6.47;91.56
70676;DHT22;59069;52.242;20.900;2023-12-20T04:53:07;6.48;91.58
70676;DHT22;59069;52.242;20.900;2023-12-20T04:55:33;6.47;91.58
70676;DHT22;59069;52.242;20.900;2023-12-20T04:57:58;6.48;91.59
70676;DHT22;59069;52.242;20.900;2023-12-20T05:00:24;6.48;91.56
70676;DHT22;59069;52.242;20.900;2023-12-20T05:02:49;6.50;91.62
70676;DHT22;59069;52.242;20.900;2023-12-20T05:05:15;6.50;91.63
70676;DHT22;59069;52.242;20.900;2023-12-20T05:07:43;6.51;91.65
70676;DHT22;59069;52.242;20.900;2023-12-20T05:10:09;6.51;91.68
70676;DHT22;59069;52.242;20.900;2023-12-20T05:12:34;6.50;91.70
70676;DHT22;59069;52.242;20.900;2023-12-20T05:15:00;6.51;91.74
70676;DHT22;59069;52.242;20.900;2023-12-20T05:17:26;6.51;91.76
70676;DHT22;59069;52.242;20.900;2023-12-20T05:19:52;6.52;91.83
70676;DHT22;59069;52.242;20.900;2023-12-20T05:22:19;6.54;91.88
70676;DHT22;59069;52.242;20.900;2023-12-20T05:24:45;6.52;91.85
70676;DHT22;59069;52.242;20.900;2023-12-20T05:27:10;6.55;91.85
70676;DHT22;59069;52.242;20.900;2023-12-20T05:29:36;6.57;91.89
70676;DHT22;59069;52.242;20.900;2023-12-20T05:32:02;6.54;91.97
70676;DHT22;59069;52.242;20.900;2023-12-20T05:34:30;6.57;91.85
70676;DHT22;59069;52.242;20.900;2023-12-20T05:36:57;6.60;91.83
70676;DHT22;59069;52.242;20.900;2023-12-20T05:39:22;6.58;91.82
70676;DHT22;59069;52.242;20.900;2023-12-20T05:41:48;6.55;91.82
70676;DHT22;59069;52.242;20.900;2023-12-20T05:44:13;6.55;91.84
70676;DHT22;59069;52.242;20.900;2023-12-20T05:46:39;6.57;91.84
70676;DHT22;59069;52.242;20.900;2023-12-20T05:49:05;6.57;91.80
70676;DHT22;59069;52.242;20.900;2023-12-20T05:51:31;6.55;91.79
70676;DHT22;59069;52.242;20.900;2023-12-20T05:53:57;6.55;91.86
70676;DHT22;59069;52.242;20.900;2023-12-20T05:56:23;6.55;91.76
70676;DHT22;59069;52.242;20.900;2023-12-20T05:58:49;6.54;91.73
70676;DHT22;59069;52.242;20.900;2023-12-20T06:01:15;6.54;91.72
70676;DHT22;59069;52.242;20.900;2023-12-20T06:03:42;6.52;91.79
70676;DHT22;59069;52.242;20.900;2023-12-20T06:06:08;6.51;91.73
70676;DHT22;59069;52.242;20.900;2023-12-20T06:08:34;6.51;91.78
70676;DHT22;59069;52.242;20.900;2023-12-20T06:11:00;6.50;91.76
70676;DHT22;59069;52.242;20.900;2023-12-20T06:13:26;6.51;91.80
70676;DHT22;59069;52.242;20.900;2023-12-20T06:15:53;6.48;91.86
70676;DHT22;59069;52.242;20.900;2023-12-20T06:18:19;6.50;91.87
70676;DHT22;59069;52.242;20.900;2023-12-20T06:20:45;6.47;91.80
70676;DHT22;59069;52.242;20.900;2023-12-20T06:23:10;6.47;91.80
70676;DHT22;59069;52.242;20.900;2023-12-20T06:25:36;6.47;91.75
70676;DHT22;59069;52.242;20.900;2023-12-20T06:28:02;6.47;91.81
70676;DHT22;59069;52.242;20.900;2023-12-20T06:30:27;6.48;91.74
70676;DHT22;59069;52.242;20.900;2023-12-20T06:32:54;6.43;91.78
70676;DHT22;59069;52.242;20.900;2023-12-20T06:35:20;6.43;91.84
70676;DHT22;59069;52.242;20.900;2023-12-20T06:37:46;6.44;91.90
70676;DHT22;59069;52.242;20.900;2023-12-20T06:40:11;6.43;91.98
70676;DHT22;59069;52.242;20.900;2023-12-20T06:42:37;6.44;91.90
70676;DHT22;59069;52.242;20.900;2023-12-20T06:45:03;6.44;91.93
70676;DHT22;59069;52.242;20.900;2023-12-20T06:47:29;6.44;91.92
70676;DHT22;59069;52.242;20.900;2023-12-20T06:49:55;6.43;91.94
70676;DHT22;59069;52.242;20.900;2023-12-20T06:52:20;6.41;91.95
70676;DHT22;59069;52.242;20.900;2023-12-20T06:54:46;6.44;91.98
70676;DHT22;59069;52.242;20.900;2023-12-20T06:57:11;6.43;91.90
70676;DHT22;59069;52.242;20.900;2023-12-20T06:59:40;6.43;91.91
70676;DHT22;59069;52.242;20.900;2023-12-20T07:02:07;6.45;91.96
70676;DHT22;59069;52.242;20.900;2023-12-20T07:04:33;6.44;91.94
70676;DHT22;59069;52.242;20.900;2023-12-20T07:06:59;6.45;91.98
70676;DHT22;59069;52.242;20.900;2023-12-20T07:09:26;6.43;91.92
70676;DHT22;59069;52.242;20.900;2023-12-20T07:11:52;6.45;92.00
70676;DHT22;59069;52.242;20.900;2023-12-20T07:14:18;6.47;92.03
70676;DHT22;59069;52.242;20.900;2023-12-20T07:16:43;6.45;92.05
70676;DHT22;59069;52.242;20.900;2023-12-20T07:19:09;6.45;92.04
70676;DHT22;59069;52.242;20.900;2023-12-20T07:21:35;6.45;92.03
70676;DHT22;59069;52.242;20.900;2023-12-20T07:24:00;6.47;92.05
70676;DHT22;59069;52.242;20.900;2023-12-20T07:26:26;6.47;91.97
70676;DHT22;59069;52.242;20.900;2023-12-20T07:28:51;6.44;91.97
70676;DHT22;59069;52.242;20.900;2023-12-20T07:31:17;6.45;91.98
70676;DHT22;59069;52.242;20.900;2023-12-20T07:33:43;6.45;91.98
70676;DHT22;59069;52.242;20.900;2023-12-20T07:36:08;6.47;91.99
70676;DHT22;59069;52.242;20.900;2023-12-20T07:38:34;6.47;91.95
70676;DHT22;59069;52.242;20.900;2023-12-20T07:41:00;6.44;91.94
70676;DHT22;59069;52.242;20.900;2023-12-20T07:43:25;6.45;91.94
70676;DHT22;59069;52.242;20.900;2023-12-20T07:45:51;6.47;91.99
70676;DHT22;59069;52.242;20.900;2023-12-20T07:48:16;6.48;91.89
70676;DHT22;59069;52.242;20.900;2023-12-20T07:50:42;6.47;91.89
70676;DHT22;59069;52.242;20.900;2023-12-20T07:53:08;6.47;91.89
70676;DHT22;59069;52.242;20.900;2023-12-20T07:55:33;6.45;91.86
70676;DHT22;59069;52.242;20.900;2023-12-20T07:58:00;6.48;91.87
70676;DHT22;59069;52.242;20.900;2023-12-20T08:00:25;6.47;91.81
70676;DHT22;59069;52.242;20.900;2023-12-20T08:02:51;6.48;91.80
70676;DHT22;59069;52.242;20.900;2023-12-20T08:05:17;6.50;91.81
70676;DHT22;59069;52.242;20.900;2023-12-20T08:07:42;6.48;91.69
70676;DHT22;59069;52.242;20.900;2023-12-20T08:10:08;6.47;91.75
70676;DHT22;59069;52.242;20.900;2023-12-20T08:12:34;6.50;91.68
70676;DHT22;59069;52.242;20.900;2023-12-20T08:15:00;6.48;91.58
70676;DHT22;59069;52.242;20.900;2023-12-20T08:17:25;6.50;91.60
70676;DHT22;59069;52.242;20.900;2023-12-20T08:19:51;6.51;91.59
70676;DHT22;59069;52.242;20.900;2023-12-20T08:22:16;6.52;91.58
70676;DHT22;59069;52.242;20.900;2023-12-20T08:24:42;6.52;91.62
70676;DHT22;59069;52.242;20.900;2023-12-20T08:27:08;6.52;91.59
70676;DHT22;59069;52.242;20.900;2023-12-20T08:29:35;6.50;91.52
70676;DHT22;59069;52.242;20.900;2023-12-20T08:32:00;6.50;91.47
70676;DHT22;59069;52.242;20.900;2023-12-20T08:34:26;6.50;91.50
70676;DHT22;59069;52.242;20.900;2023-12-20T08:36:51;6.47;91.54
70676;DHT22;59069;52.242;20.900;2023-12-20T08:39:17;6.45;91.58
70676;DHT22;59069;52.242;20.900;2023-12-20T08:41:43;6.45;91.55
70676;DHT22;59069;52.242;20.900;2023-12-20T08:44:09;6.47;91.60
70676;DHT22;59069;52.242;20.900;2023-12-20T08:46:35;6.47;91.64
70676;DHT22;59069;52.242;20.900;2023-12-20T08:49:01;6.48;91.57
70676;DHT22;59069;52.242;20.900;2023-12-20T08:51:26;6.45;91.51
70676;DHT22;59069;52.242;20.900;2023-12-20T08:53:53;6.45;91.55
70676;DHT22;59069;52.242;20.900;2023-12-20T08:56:19;6.43;91.58
70676;DHT22;59069;52.242;20.900;2023-12-20T08:58:45;6.47;91.61
70676;DHT22;59069;52.242;20.900;2023-12-20T09:01:11;6.45;91.72
70676;DHT22;59069;52.242;20.900;2023-12-20T09:03:36;6.44;91.69
70676;DHT22;59069;52.242;20.900;2023-12-20T09:06:02;6.50;91.56
70676;DHT22;59069;52.242;20.900;2023-12-20T09:08:28;6.48;91.58
70676;DHT22;59069;52.242;20.900;2023-12-20T09:10:54;6.48;91.59
70676;DHT22;59069;52.242;20.900;2023-12-20T09:13:19;6.45;91.58
70676;DHT22;59069;52.242;20.900;2023-12-20T09:15:46;6.48;91.51
70676;DHT22;59069;52.242;20.900;2023-12-20T09:18:12;6.48;91.55
70676;DHT22;59069;52.242;20.900;2023-12-20T09:20:37;6.45;91.55
70676;DHT22;59069;52.242;20.900;2023-12-20T09:23:03;6.47;91.63
70676;DHT22;59069;52.242;20.900;2023-12-20T09:25:28;6.48;91.69
70676;DHT22;59069;52.242;20.900;2023-12-20T09:27:55;6.48;91.69
70676;DHT22;59069;52.242;20.900;2023-12-20T09:30:20;6.48;91.71
70676;DHT22;59069;52.242;20.900;2023-12-20T09:32:46;6.50;91.73
70676;DHT22;59069;52.242;20.900;2023-12-20T09:35:12;6.50;91.79
70676;DHT22;59069;52.242;20.900;2023-12-20T09:37:37;6.55;91.86
70676;DHT22;59069;52.242;20.900;2023-12-20T09:40:03;6.52;91.80
70676;DHT22;59069;52.242;20.900;2023-12-20T09:43:04;6.54;91.71
70676;DHT22;59069;52.242;20.900;2023-12-20T09:45:30;6.58;91.77
70676;DHT22;59069;52.242;20.900;2023-12-20T09:47:58;6.58;91.71
70676;DHT22;59069;52.242;20.900;2023-12-20T09:50:24;6.61;91.65
70676;DHT22;59069;52.242;20.900;2023-12-20T09:52:51;6.61;91.55
70676;DHT22;59069;52.242;20.900;2023-12-20T09:55:18;6.58;91.50
70676;DHT22;59069;52.242;20.900;2023-12-20T09:57:45;6.60;91.50
70676;DHT22;59069;52.242;20.900;2023-12-20T10:00:11;6.60;91.44
70676;DHT22;59069;52.242;20.900;2023-12-20T10:02:38;6.58;91.39
70676;DHT22;59069;52.242;20.900;2023-12-20T10:05:08;6.57;91.42
70676;DHT22;59069;52.242;20.900;2023-12-20T10:07:35;6.54;91.40
70676;DHT22;59069;52.242;20.900;2023-12-20T10:10:01;6.58;91.34
70676;DHT22;59069;52.242;20.900;2023-12-20T10:12:27;6.54;91.36
70676;DHT22;59069;52.242;20.900;2023-12-20T10:14:53;6.55;91.39
70676;DHT22;59069;52.242;20.900;2023-12-20T10:17:19;6.55;91.48
70676;DHT22;59069;52.242;20.900;2023-12-20T10:19:46;6.52;91.49
70676;DHT22;59069;52.242;20.900;2023-12-20T10:22:12;6.52;91.59
70676;DHT22;59069;52.242;20.900;2023-12-20T10:24:37;6.51;91.59
70676;DHT22;59069;52.242;20.900;2023-12-20T10:27:04;6.54;91.52
70676;DHT22;59069;52.242;20.900;2023-12-20T10:29:36;6.52;91.52
70676;DHT22;59069;52.242;20.900;2023-12-20T10:34:50;6.57;91.53
70676;DHT22;59069;52.242;20.900;2023-12-20T10:37:16;6.54;91.48
70676;DHT22;59069;52.242;20.900;2023-12-20T10:39:42;6.58;91.34
70676;DHT22;59069;52.242;20.900;2023-12-20T10:42:10;6.58;91.35
70676;DHT22;59069;52.242;20.900;2023-12-20T10:44:36;6.61;91.37
70676;DHT22;59069;52.242;20.900;2023-12-20T10:47:03;6.60;91.38
70676;DHT22;59069;52.242;20.900;2023-12-20T10:49:30;6.58;91.30
70676;DHT22;59069;52.242;20.900;2023-12-20T10:51:59;6.60;91.42
70676;DHT22;59069;52.242;20.900;2023-12-20T10:54:27;6.58;91.46
70676;DHT22;59069;52.242;20.900;2023-12-20T10:56:54;6.58;91.33
70676;DHT22;59069;52.242;20.900;2023-12-20T10:59:20;6.58;91.14
70676;DHT22;59069;52.242;20.900;2023-12-20T11:01:48;6.60;91.24
70676;DHT22;59069;52.242;20.900;2023-12-20T11:04:19;6.61;91.31
70676;DHT22;59069;52.242;20.900;2023-12-20T11:06:54;6.63;91.21
70676;DHT22;59069;52.242;20.900;2023-12-20T11:09:25;6.63;91.07
70676;DHT22;59069;52.242;20.900;2023-12-20T11:14:52;6.65;91.23
70676;DHT22;59069;52.242;20.900;2023-12-20T11:17:18;6.65;91.15
70676;DHT22;59069;52.242;20.900;2023-12-20T11:22:21;6.67;91.12
70676;DHT22;59069;52.242;20.900;2023-12-20T11:24:48;6.68;91.07
70676;DHT22;59069;52.242;20.900;2023-12-20T11:27:14;6.68;91.07
70676;DHT22;59069;52.242;20.900;2023-12-20T11:29:40;6.70;91.06
70676;DHT22;59069;52.242;20.900;2023-12-20T11:35:00;6.67;90.83
70676;DHT22;59069;52.242;20.900;2023-12-20T11:37:29;6.63;90.82
70676;DHT22;59069;52.242;20.900;2023-12-20T11:40:07;6.64;90.84
70676;DHT22;59069;52.242;20.900;2023-12-20T11:42:40;6.61;91.05
70676;DHT22;59069;52.242;20.900;2023-12-20T11:45:10;6.63;91.15
70676;DHT22;59069;52.242;20.900;2023-12-20T11:47:35;6.60;91.16
70676;DHT22;59069;52.242;20.900;2023-12-20T11:50:02;6.63;91.17
70676;DHT22;59069;52.242;20.900;2023-12-20T11:52:29;6.64;91.18
70676;DHT22;59069;52.242;20.900;2023-12-20T11:54:55;6.63;91.22
70676;DHT22;59069;52.242;20.900;2023-12-20T11:57:21;6.65;91.05
70676;DHT22;59069;52.242;20.900;2023-12-20T11:59:46;6.64;90.94
70676;DHT22;59069;52.242;20.900;2023-12-20T12:02:12;6.61;90.87
70676;DHT22;59069;52.242;20.900;2023-12-20T12:04:41;6.60;90.84
70676;DHT22;59069;52.242;20.900;2023-12-20T12:07:07;6.58;90.93
70676;DHT22;59069;52.242;20.900;2023-12-20T12:09:32;6.54;90.92
70676;DHT22;59069;52.242;20.900;2023-12-20T12:11:58;6.52;90.81
70676;DHT22;59069;52.242;20.900;2023-12-20T12:14:24;6.52;90.87
70676;DHT22;59069;52.242;20.900;2023-12-20T12:16:50;6.51;90.83
70676;DHT22;59069;52.242;20.900;2023-12-20T12:19:24;6.45;90.86
70676;DHT22;59069;52.242;20.900;2023-12-20T12:24:52;6.47;90.43
70676;DHT22;59069;52.242;20.900;2023-12-20T12:27:17;6.43;89.92
70676;DHT22;59069;52.242;20.900;2023-12-20T12:30:01;6.40;89.85
70676;DHT22;59069;52.242;20.900;2023-12-20T12:32:28;6.37;89.76
70676;DHT22;59069;52.242;20.900;2023-12-20T12:34:53;6.34;89.76
70676;DHT22;59069;52.242;20.900;2023-12-20T12:37:19;6.29;89.62
70676;DHT22;59069;52.242;20.900;2023-12-20T12:39:46;6.26;89.56
70676;DHT22;59069;52.242;20.900;2023-12-20T12:42:12;6.24;89.46
70676;DHT22;59069;52.242;20.900;2023-12-20T12:44:37;6.23;89.52
70676;DHT22;59069;52.242;20.900;2023-12-20T12:47:03;6.20;89.63
70676;DHT22;59069;52.242;20.900;2023-12-20T12:49:28;6.20;89.84
70676;DHT22;59069;52.242;20.900;2023-12-20T12:51:54;6.20;90.04
70676;DHT22;59069;52.242;20.900;2023-12-20T12:54:23;6.19;90.00
70676;DHT22;59069;52.242;20.900;2023-12-20T12:56:49;6.19;89.94
70676;DHT22;59069;52.242;20.900;2023-12-20T12:59:16;6.20;89.92
70676;DHT22;59069;52.242;20.900;2023-12-20T13:01:42;6.20;89.94
70676;DHT22;59069;52.242;20.900;2023-12-20T13:04:08;6.20;89.89
70676;DHT22;59069;52.242;20.900;2023-12-20T13:06:37;6.21;89.85
70676;DHT22;59069;52.242;20.900;2023-12-20T13:09:03;6.21;89.75
70676;DHT22;59069;52.242;20.900;2023-12-20T13:11:30;6.20;89.55
70676;DHT22;59069;52.242;20.900;2023-12-20T13:13:57;6.16;89.45
70676;DHT22;59069;52.242;20.900;2023-12-20T13:16:23;6.14;89.50
70676;DHT22;59069;52.242;20.900;2023-12-20T13:18:49;6.16;89.39
70676;DHT22;59069;52.242;20.900;2023-12-20T13:21:15;6.17;89.44
70676;DHT22;59069;52.242;20.900;2023-12-20T13:23:42;6.14;89.31
70676;DHT22;59069;52.242;20.900;2023-12-20T13:26:08;6.17;89.19
70676;DHT22;59069;52.242;20.900;2023-12-20T13:28:33;6.17;89.07
70676;DHT22;59069;52.242;20.900;2023-12-20T13:30:59;6.17;88.97
70676;DHT22;59069;52.242;20.900;2023-12-20T13:33:25;6.17;88.80
70676;DHT22;59069;52.242;20.900;2023-12-20T13:35:51;6.17;88.60
70676;DHT22;59069;52.242;20.900;2023-12-20T13:38:16;6.19;88.41
70676;DHT22;59069;52.242;20.900;2023-12-20T13:40:42;6.16;88.21
70676;DHT22;59069;52.242;20.900;2023-12-20T13:43:08;6.14;88.18
70676;DHT22;59069;52.242;20.900;2023-12-20T13:45:33;6.13;88.13
70676;DHT22;59069;52.242;20.900;2023-12-20T13:47:59;6.12;88.18
70676;DHT22;59069;52.242;20.900;2023-12-20T13:50:25;6.10;88.16
70676;DHT22;59069;52.242;20.900;2023-12-20T13:52:51;6.12;88.15
70676;DHT22;59069;52.242;20.900;2023-12-20T13:55:17;6.09;88.08
70676;DHT22;59069;52.242;20.900;2023-12-20T13:57:42;6.12;88.04
70676;DHT22;59069;52.242;20.900;2023-12-20T14:00:08;6.12;87.93
70676;DHT22;59069;52.242;20.900;2023-12-20T14:02:40;6.12;87.76
70676;DHT22;59069;52.242;20.900;2023-12-20T14:05:06;6.12;87.67
70676;DHT22;59069;52.242;20.900;2023-12-20T14:07:32;6.12;87.43
70676;DHT22;59069;52.242;20.900;2023-12-20T14:09:57;6.10;87.24
70676;DHT22;59069;52.242;20.900;2023-12-20T14:12:24;6.07;87.18
70676;DHT22;59069;52.242;20.900;2023-12-20T14:14:50;6.09;87.17
70676;DHT22;59069;52.242;20.900;2023-12-20T14:17:17;6.09;87.10
70676;DHT22;59069;52.242;20.900;2023-12-20T14:19:43;6.06;86.83
70676;DHT22;59069;52.242;20.900;2023-12-20T14:22:09;6.02;86.64
70676;DHT22;59069;52.242;20.900;2023-12-20T14:24:37;6.02;86.54
70676;DHT22;59069;52.242;20.900;2023-12-20T14:27:03;5.96;86.33
70676;DHT22;59069;52.242;20.900;2023-12-20T14:29:28;5.96;86.13
70676;DHT22;59069;52.242;20.900;2023-12-20T14:31:54;5.93;85.98
70676;DHT22;59069;52.242;20.900;2023-12-20T14:34:19;5.93;85.70
70676;DHT22;59069;52.242;20.900;2023-12-20T14:36:45;5.90;85.56
70676;DHT22;59069;52.242;20.900;2023-12-20T14:39:11;5.89;85.50
70676;DHT22;59069;52.242;20.900;2023-12-20T14:41:38;5.88;85.31
70676;DHT22;59069;52.242;20.900;2023-12-20T14:44:05;5.86;85.20
70676;DHT22;59069;52.242;20.900;2023-12-20T14:46:31;5.83;85.17
70676;DHT22;59069;52.242;20.900;2023-12-20T14:48:57;5.83;85.18
70676;DHT22;59069;52.242;20.900;2023-12-20T14:51:23;5.83;84.95
70676;DHT22;59069;52.242;20.900;2023-12-20T14:53:49;5.82;84.77
70676;DHT22;59069;52.242;20.900;2023-12-20T14:56:15;5.82;84.69
70676;DHT22;59069;52.242;20.900;2023-12-20T14:58:41;5.82;84.75
70676;DHT22;59069;52.242;20.900;2023-12-20T15:01:07;5.82;84.75
70676;DHT22;59069;52.242;20.900;2023-12-20T15:03:34;5.82;84.65
70676;DHT22;59069;52.242;20.900;2023-12-20T15:06:00;5.82;84.42
70676;DHT22;59069;52.242;20.900;2023-12-20T15:08:26;5.80;84.18
70676;DHT22;59069;52.242;20.900;2023-12-20T15:10:51;5.79;84.17
70676;DHT22;59069;52.242;20.900;2023-12-20T15:13:17;5.82;84.07
70676;DHT22;59069;52.242;20.900;2023-12-20T15:15:42;5.79;84.08
70676;DHT22;59069;52.242;20.900;2023-12-20T15:18:08;5.78;84.11
70676;DHT22;59069;52.242;20.900;2023-12-20T15:20:34;5.73;84.07
70676;DHT22;59069;52.242;20.900;2023-12-20T15:23:01;5.76;84.09
70676;DHT22;59069;52.242;20.900;2023-12-20T15:25:32;5.75;84.09
70676;DHT22;59069;52.242;20.900;2023-12-20T15:27:59;5.78;83.97
70676;DHT22;59069;52.242;20.900;2023-12-20T15:30:25;5.76;83.85
70676;DHT22;59069;52.242;20.900;2023-12-20T15:32:50;5.78;83.83
70676;DHT22;59069;52.242;20.900;2023-12-20T15:35:16;5.76;83.72
70676;DHT22;59069;52.242;20.900;2023-12-20T15:37:42;5.73;83.63